createdAt,value
2018-08-09T16:15:47.220Z,27.50
2018-08-09T16:18:15.030Z,27.50
2018-08-09T16:20:42.967Z,27.20
2018-08-09T16:23:11.247Z,27.00
2018-08-09T16:25:38.956Z,26.70
2018-08-09T16:28:06.730Z,26.50
2018-08-09T16:30:34.496Z,26.60
2018-08-09T16:33:02.223Z,26.60
2018-08-09T16:35:30.082Z,26.60
2018-08-09T16:37:57.760Z,26.80
2018-08-09T16:40:26.296Z,26.80
2018-08-09T16:42:54.239Z,26.90
2018-08-09T16:45:23.171Z,26.90
2018-08-09T16:47:52.015Z,26.80
2018-08-09T16:50:21.067Z,26.80
2018-08-09T16:52:49.630Z,26.70
2018-08-09T16:55:18.927Z,26.70
2018-08-09T16:57:46.598Z,26.50
2018-08-09T17:00:17.687Z,26.40
2018-08-09T17:02:45.308Z,26.20
2018-08-09T17:05:16.037Z,26.20
2018-08-09T17:07:44.036Z,26.10
2018-08-09T17:10:13.179Z,26.10
2018-08-09T17:12:41.316Z,26.10
2018-08-09T17:15:12.441Z,26.10
2018-08-09T17:17:40.424Z,26.10
2018-08-09T17:20:11.205Z,26.10
2018-08-09T17:22:39.151Z,26.10
2018-08-09T17:25:07.764Z,26.20
2018-08-09T17:27:35.615Z,26.20
2018-08-09T17:30:04.456Z,26.30
2018-08-09T17:32:32.163Z,26.40
2018-08-09T17:34:59.840Z,26.40
2018-08-09T17:37:27.505Z,26.30
2018-08-09T17:39:55.286Z,26.20
2018-08-09T17:42:23.131Z,26.20
2018-08-09T17:44:51.601Z,26.20
2018-08-09T17:47:19.661Z,26.20
2018-08-09T17:49:47.299Z,25.90
2018-08-09T17:52:14.880Z,25.80
2018-08-09T17:54:42.555Z,25.70
2018-08-09T17:57:10.388Z,25.60
2018-08-09T17:59:38.279Z,25.40
2018-08-09T18:02:06.131Z,25.30
2018-08-09T18:04:34.087Z,25.30
2018-08-09T18:07:01.879Z,25.20
2018-08-09T18:09:29.603Z,25.00
2018-08-09T18:11:57.391Z,25.00
2018-08-09T18:14:25.164Z,25.00
2018-08-09T18:16:52.827Z,25.00
2018-08-09T18:19:21.011Z,25.00
2018-08-09T18:21:48.775Z,25.00
2018-08-09T18:24:16.512Z,25.00
2018-08-09T18:26:44.195Z,24.90
2018-08-09T18:29:11.954Z,24.80
2018-08-09T18:31:39.789Z,24.80
2018-08-09T18:34:07.611Z,24.70
2018-08-09T18:36:35.527Z,24.60
2018-08-09T18:39:05.186Z,24.60
2018-08-09T18:41:32.738Z,24.50
2018-08-09T18:44:00.302Z,24.50
2018-08-09T18:46:27.871Z,24.40
2018-08-09T18:48:55.461Z,24.40
2018-08-09T18:51:23.214Z,24.20
2018-08-09T18:53:50.927Z,24.00
2018-08-09T18:56:19.208Z,23.90
2018-08-09T18:58:46.817Z,23.80
2018-08-09T19:01:15.667Z,23.60
2018-08-09T19:03:43.976Z,23.60
2018-08-09T19:06:11.995Z,23.50
2018-08-09T19:08:39.601Z,23.40
2018-08-09T19:11:07.376Z,23.30
2018-08-09T19:13:35.218Z,23.20
2018-08-09T19:16:03.227Z,23.20
2018-08-09T19:18:31.152Z,23.10
2018-08-09T19:20:58.803Z,23.00
2018-08-09T19:23:26.364Z,23.00
2018-08-09T19:25:54.027Z,22.90
2018-08-09T19:28:21.969Z,22.70
2018-08-09T19:30:49.587Z,22.60
2018-08-09T19:33:17.272Z,22.50
2018-08-09T19:35:45.012Z,22.20
2018-08-09T19:38:13.543Z,22.20
2018-08-09T19:40:41.212Z,22.00
2018-08-09T19:43:09.072Z,22.00
2018-08-09T19:45:36.800Z,22.00
2018-08-09T19:48:04.931Z,22.00
2018-08-09T19:50:32.672Z,22.00
2018-08-09T19:53:00.364Z,22.10
2018-08-09T19:55:28.193Z,21.90
2018-08-09T19:57:56.004Z,22.00
2018-08-09T20:00:26.643Z,22.00
2018-08-09T20:02:54.552Z,22.00
2018-08-09T20:05:23.016Z,22.00
2018-08-09T20:07:50.789Z,22.00
2018-08-09T20:10:18.652Z,22.00
2018-08-09T20:12:46.969Z,22.10
2018-08-09T20:15:17.037Z,22.20
2018-08-09T20:17:44.711Z,22.20
2018-08-09T20:20:14.580Z,21.90
2018-08-09T20:22:42.360Z,21.80
2018-08-09T20:25:12.081Z,21.90
2018-08-09T20:27:40.429Z,22.00
2018-08-09T20:30:10.379Z,22.00
2018-08-09T20:32:38.732Z,22.00
2018-08-09T20:35:09.020Z,22.00
2018-08-09T20:37:36.688Z,22.00
2018-08-09T20:40:05.121Z,22.10
2018-08-09T20:42:32.827Z,22.10
2018-08-09T20:45:00.411Z,22.20
2018-08-09T20:47:28.016Z,22.30
2018-08-09T20:49:55.609Z,22.30
2018-08-09T20:52:23.404Z,22.30
2018-08-09T20:54:50.984Z,22.20
2018-08-09T20:57:18.722Z,22.20
2018-08-09T20:59:46.324Z,22.20
2018-08-09T21:02:14.233Z,22.10
2018-08-09T21:04:42.215Z,21.90
2018-08-09T21:07:10.086Z,21.90
2018-08-09T21:09:37.772Z,21.90
2018-08-09T21:12:06.163Z,21.80
2018-08-09T21:14:33.704Z,21.80
2018-08-09T21:17:01.364Z,21.60
2018-08-09T21:19:29.028Z,21.70
2018-08-09T21:21:56.679Z,21.60
2018-08-09T21:24:24.324Z,21.40
2018-08-09T21:26:52.019Z,21.40
2018-08-09T21:29:19.692Z,21.50
2018-08-09T21:31:47.325Z,21.50
2018-08-09T21:34:14.908Z,21.70
2018-08-09T21:36:42.625Z,21.70
2018-08-09T21:39:11.110Z,21.50
2018-08-09T21:41:39.568Z,21.50
2018-08-09T21:44:07.172Z,21.50
2018-08-09T21:46:34.887Z,21.60
2018-08-09T21:49:03.379Z,21.70
2018-08-09T21:51:31.003Z,21.80
2018-08-09T21:53:58.619Z,21.80
2018-08-09T21:56:26.467Z,21.80
2018-08-09T21:58:54.111Z,21.70
2018-08-09T22:01:21.881Z,21.70
2018-08-09T22:03:49.621Z,21.70
2018-08-09T22:06:22.767Z,21.70
2018-08-09T22:08:56.164Z,21.70
2018-08-09T22:11:29.402Z,21.60
2018-08-09T22:14:03.084Z,21.40
2018-08-09T22:16:36.660Z,21.30
2018-08-09T22:19:10.113Z,21.30
2018-08-09T22:21:43.572Z,21.30
2018-08-09T22:24:11.349Z,21.00
2018-08-09T22:26:39.207Z,20.80
2018-08-09T22:29:06.795Z,20.80
2018-08-09T22:31:34.554Z,20.60
2018-08-09T22:34:02.713Z,20.40
2018-08-09T22:36:30.755Z,20.50
2018-08-09T22:38:58.459Z,20.40
2018-08-09T22:41:25.995Z,20.40
2018-08-09T22:43:53.707Z,20.40
2018-08-09T22:46:21.319Z,20.40
2018-08-09T22:48:48.985Z,20.50
2018-08-09T22:51:16.519Z,20.60
2018-08-09T22:53:44.753Z,20.70
2018-08-09T22:56:12.503Z,20.80
2018-08-09T22:58:40.219Z,20.90
2018-08-09T23:01:07.877Z,20.90
2018-08-09T23:03:35.465Z,21.00
2018-08-09T23:06:03.160Z,21.00
2018-08-09T23:08:30.966Z,20.90
2018-08-09T23:10:58.632Z,21.00
2018-08-09T23:13:26.200Z,21.00
2018-08-09T23:15:53.890Z,21.00
2018-08-09T23:18:21.597Z,20.90
2018-08-09T23:20:49.323Z,21.00
2018-08-09T23:23:17.065Z,20.90
2018-08-09T23:25:44.878Z,20.90
2018-08-09T23:28:13.247Z,20.90
2018-08-09T23:30:41.056Z,20.70
2018-08-09T23:33:08.848Z,20.90
2018-08-09T23:35:36.524Z,21.00
2018-08-09T23:38:04.423Z,21.10
2018-08-09T23:40:31.972Z,21.00
2018-08-09T23:42:59.731Z,21.10
2018-08-09T23:45:27.371Z,21.20
2018-08-09T23:47:55.096Z,21.20
2018-08-09T23:50:23.243Z,21.20
2018-08-09T23:52:50.981Z,21.30
2018-08-09T23:55:18.576Z,21.30
2018-08-09T23:57:46.479Z,21.20
